Dong Fang Chun — BRZL — position and weather

sailwx.info

Track history (hours):
 
Tides and Currents Weather Stations Pressure Air Temp Water Temp Dewpoint Dewpoint Depression Visibility Wind Speed Wind Dir Waves Ship Positions

Dong Fang Chun

Last reported at 2015-Jul-31 09:13 UTC. Time now 2015-Jul-31 11:15 UTC.
Position N 22°14' E 113°35'.

Length 23 m; draft 1.2 m.

Type: High speed craft. MMSI: 412461320.

Date/timePositionNaut miles runAvg speedWind from/ knotsBaromVisibWave heightAir tempDewpointWater temp
2015-Jul-31 09:13N 22°14' E 113°35'1522.4
2015-Jul-31 08:33N 22°22' E 113°49'1 1.1
2015-Jul-31 07:33N 22°23' E 113°50'3 1.1
2015-Jul-31 04:17N 22°21' E 113°47'1114.7
2015-Jul-31 03:33N 22°29' E 113°55'0 0.0
2015-Jul-31 02:33N 22°29' E 113°55'0 0.0
2015-Jul-31 01:34N 22°29' E 113°55'1 0.1
2015-Jul-30 11:34N 22°28' E 113°55'2222.3
2015-Jul-30 10:33N 22°14' E 113°35'1 1.0
2015-Jul-30 09:33N 22°15' E 113°36'2222.2
2015-Jul-30 08:33N 22°29' E 113°55'1915.5
2015-Jul-30 07:18N 22°16' E 113°39'1 1.9
2015-Jul-30 06:32N 22°16' E 113°37'2121.1
2015-Jul-30 05:33N 22°29' E 113°55'2019.0
2015-Jul-30 04:30N 22°16' E 113°38'9 9.6
2015-Jul-30 03:33N 22°21' E 113°46'1110.9
2015-Jul-30 02:32N 22°29' E 113°55'0 0.0
2015-Jul-29 06:32N 22°29' E 113°55'0 0.0
2015-Jul-28 13:13N 22°29' E 113°55'1920.5
2015-Jul-28 12:16N 22°16' E 113°39'4 4.2
2015-Jul-28 11:23N 22°14' E 113°35'2021.1
2015-Jul-28 10:26N 22°26' E 113°53'1 1.2
2015-Jul-28 09:33N 22°27' E 113°54'2110.4
2015-Jul-28 07:34N 22°14' E 113°36'2222.5
2015-Jul-28 06:34N 22°28' E 113°55'0 0.4
2015-Jul-28 05:33N 22°29' E 113°55'1918.5
2015-Jul-28 04:31N 22°16' E 113°39'8 8.0
2015-Jul-28 03:32N 22°20' E 113°46'10 9.9
2015-Jul-28 02:34N 22°27' E 113°54'2121.1
2015-Jul-28 01:33N 22°14' E 113°35'1513.4
2015-Jul-28 00:28N 22°22' E 113°49'9 9.3
2015-Jul-27 23:33N 22°29' E 113°55'3 0.3
2015-Jul-27 13:33N 22°26' E 113°54'7 3.3
2015-Jul-27 11:19N 22°22' E 113°47'810.5
2015-Jul-27 10:34N 22°27' E 113°54'19 6.1
2015-Jul-27 07:31N 22°16' E 113°38'2020.8
2015-Jul-27 06:33N 22°28' E 113°55'0 0.3
2015-Jul-27 05:33N 22°29' E 113°55'2 0.2
2015-Jul-26 13:34N 22°26' E 113°54'7 3.0
2015-Jul-26 11:04N 22°22' E 113°47'917.7
2015-Jul-26 10:32N 22°29' E 113°55'2019.1
2015-Jul-26 09:28N 22°16' E 113°38'11 7.7
2015-Jul-26 08:03N 22°22' E 113°48'1019.7
2015-Jul-26 07:33N 22°29' E 113°55'0 0.2
2015-Jul-26 06:33N 22°29' E 113°55'2 0.1
2015-Jul-25 11:33N 22°26' E 113°54'18 9.0
2015-Jul-25 09:32N 22°16' E 113°38'2020.6
2015-Jul-25 08:33N 22°29' E 113°55'2016.2
2015-Jul-25 07:20N 22°16' E 113°38'10 8.6
2015-Jul-25 06:10N 22°21' E 113°48'1016.0
2015-Jul-25 05:33N 22°29' E 113°55'2019.9
2015-Jul-25 04:33N 22°16' E 113°38'1612.4
2015-Jul-25 03:17N 22°25' E 113°52'2 2.4
2015-Jul-25 02:33N 22°26' E 113°53'2014.6
2015-Jul-25 01:10N 22°14' E 113°35'1320.9
2015-Jul-25 00:32N 22°21' E 113°47'1010.3
2015-Jul-24 23:33N 22°29' E 113°55'0 0.0
2015-Jul-24 11:17N 22°29' E 113°55'2019.1
2015-Jul-24 10:16N 22°16' E 113°38'9 2.8
2015-Jul-24 07:05N 22°21' E 113°46'1120.5
2015-Jul-24 06:34N 22°28' E 113°55'9 4.0
2015-Jul-24 04:10N 22°22' E 113°47'1015.7
2015-Jul-24 03:33N 22°29' E 113°55'10 4.5
2015-Jul-24 01:20N 22°21' E 113°47'1012.9
2015-Jul-24 00:33N 22°29' E 113°55'0 0.1
2015-Jul-23 23:32N 22°29' E 113°55'2 0.2
2015-Jul-23 13:34N 22°26' E 113°54'1 0.5
2015-Jul-23 11:06N 22°26' E 113°53'3 0.8
2015-Jul-23 06:33N 22°29' E 113°55'0 0.0
2015-Jul-23 03:33N 22°29' E 113°55'0 0.0
2015-Jul-23 00:33N 22°29' E 113°55'0 0.1
2015-Jul-22 23:33N 22°29' E 113°55'  
Track history (hours):
 
Tides and Currents Weather Stations Pressure Air Temp Water Temp Dewpoint Dewpoint Depression Visibility Wind Speed Wind Dir Waves Ship Positions

Dong Fang Chun

Last reported at 2015-Jul-31 09:13 UTC. Time now 2015-Jul-31 11:15 UTC.
Position N 22°14' E 113°35'.

Length 23 m; draft 1.2 m.

Type: High speed craft. MMSI: 412461320.

Date/timePositionNaut miles runAvg speedWind from/ knotsBaromVisibWave heightAir tempDewpointWater temp
2015-Jul-31 09:13N 22°14' E 113°35'1522.4
2015-Jul-31 08:33N 22°22' E 113°49'1 1.1
2015-Jul-31 07:33N 22°23' E 113°50'3 1.1
2015-Jul-31 04:17N 22°21' E 113°47'1114.7
2015-Jul-31 03:33N 22°29' E 113°55'0 0.0
2015-Jul-31 02:33N 22°29' E 113°55'0 0.0
2015-Jul-31 01:34N 22°29' E 113°55'1 0.1
2015-Jul-30 11:34N 22°28' E 113°55'2222.3
2015-Jul-30 10:33N 22°14' E 113°35'1 1.0
2015-Jul-30 09:33N 22°15' E 113°36'2222.2
2015-Jul-30 08:33N 22°29' E 113°55'1915.5
2015-Jul-30 07:18N 22°16' E 113°39'1 1.9
2015-Jul-30 06:32N 22°16' E 113°37'2121.1
2015-Jul-30 05:33N 22°29' E 113°55'2019.0
2015-Jul-30 04:30N 22°16' E 113°38'9 9.6
2015-Jul-30 03:33N 22°21' E 113°46'1110.9
2015-Jul-30 02:32N 22°29' E 113°55'0 0.0
2015-Jul-29 06:32N 22°29' E 113°55'0 0.0
2015-Jul-28 13:13N 22°29' E 113°55'1920.5
2015-Jul-28 12:16N 22°16' E 113°39'4 4.2
2015-Jul-28 11:23N 22°14' E 113°35'2021.1
2015-Jul-28 10:26N 22°26' E 113°53'1 1.2
2015-Jul-28 09:33N 22°27' E 113°54'2110.4
2015-Jul-28 07:34N 22°14' E 113°36'2222.5
2015-Jul-28 06:34N 22°28' E 113°55'0 0.4
2015-Jul-28 05:33N 22°29' E 113°55'1918.5
2015-Jul-28 04:31N 22°16' E 113°39'8 8.0
2015-Jul-28 03:32N 22°20' E 113°46'10 9.9
2015-Jul-28 02:34N 22°27' E 113°54'2121.1
2015-Jul-28 01:33N 22°14' E 113°35'1513.4
2015-Jul-28 00:28N 22°22' E 113°49'9 9.3
2015-Jul-27 23:33N 22°29' E 113°55'3 0.3
2015-Jul-27 13:33N 22°26' E 113°54'7 3.3
2015-Jul-27 11:19N 22°22' E 113°47'810.5
2015-Jul-27 10:34N 22°27' E 113°54'19 6.1
2015-Jul-27 07:31N 22°16' E 113°38'2020.8
2015-Jul-27 06:33N 22°28' E 113°55'0 0.3
2015-Jul-27 05:33N 22°29' E 113°55'2 0.2
2015-Jul-26 13:34N 22°26' E 113°54'7 3.0
2015-Jul-26 11:04N 22°22' E 113°47'917.7
2015-Jul-26 10:32N 22°29' E 113°55'2019.1
2015-Jul-26 09:28N 22°16' E 113°38'11 7.7
2015-Jul-26 08:03N 22°22' E 113°48'1019.7
2015-Jul-26 07:33N 22°29' E 113°55'0 0.2
2015-Jul-26 06:33N 22°29' E 113°55'2 0.1
2015-Jul-25 11:33N 22°26' E 113°54'18 9.0
2015-Jul-25 09:32N 22°16' E 113°38'2020.6
2015-Jul-25 08:33N 22°29' E 113°55'2016.2
2015-Jul-25 07:20N 22°16' E 113°38'10 8.6
2015-Jul-25 06:10N 22°21' E 113°48'1016.0
2015-Jul-25 05:33N 22°29' E 113°55'2019.9
2015-Jul-25 04:33N 22°16' E 113°38'1612.4
2015-Jul-25 03:17N 22°25' E 113°52'2 2.4
2015-Jul-25 02:33N 22°26' E 113°53'2014.6
2015-Jul-25 01:10N 22°14' E 113°35'1320.9
2015-Jul-25 00:32N 22°21' E 113°47'1010.3
2015-Jul-24 23:33N 22°29' E 113°55'0 0.0
2015-Jul-24 11:17N 22°29' E 113°55'2019.1
2015-Jul-24 10:16N 22°16' E 113°38'9 2.8
2015-Jul-24 07:05N 22°21' E 113°46'1120.5
2015-Jul-24 06:34N 22°28' E 113°55'9 4.0
2015-Jul-24 04:10N 22°22' E 113°47'1015.7
2015-Jul-24 03:33N 22°29' E 113°55'10 4.5
2015-Jul-24 01:20N 22°21' E 113°47'1012.9
2015-Jul-24 00:33N 22°29' E 113°55'0 0.1
2015-Jul-23 23:32N 22°29' E 113°55'2 0.2
2015-Jul-23 13:34N 22°26' E 113°54'1 0.5
2015-Jul-23 11:06N 22°26' E 113°53'3 0.8
2015-Jul-23 06:33N 22°29' E 113°55'0 0.0
2015-Jul-23 03:33N 22°29' E 113°55'0 0.0
2015-Jul-23 00:33N 22°29' E 113°55'0 0.1
2015-Jul-22 23:33N 22°29' E 113°55'  

Dump ship's entire track history